createdAt,value
2019-03-03T00:03:02.886Z,97648.00
2019-03-03T00:07:03.965Z,97648.00
2019-03-03T00:11:04.939Z,97654.00
2019-03-03T00:15:25.749Z,97659.00
2019-03-03T00:19:46.579Z,97663.00
2019-03-03T00:24:07.344Z,97670.00
2019-03-03T00:28:28.085Z,97664.00
2019-03-03T00:32:48.949Z,97663.00
2019-03-03T00:37:29.651Z,97660.00
2019-03-03T00:42:10.265Z,97668.00
2019-03-03T00:46:31.155Z,97661.00
2019-03-03T00:51:11.884Z,97657.00
2019-03-03T00:55:32.665Z,97643.00
2019-03-03T01:00:13.470Z,97658.00
2019-03-03T01:04:54.083Z,97653.00
2019-03-03T01:09:54.558Z,97646.00
2019-03-03T01:23:47.134Z,97641.00
2019-03-03T01:28:08.029Z,97628.00
2019-03-03T01:32:28.815Z,97626.00
2019-03-03T01:36:49.633Z,97630.00
2019-03-03T01:41:10.388Z,97631.00
2019-03-03T01:45:24.156Z,97627.00
2019-03-03T01:49:38.038Z,97629.00
2019-03-03T01:53:52.819Z,97621.00
2019-03-03T01:58:07.417Z,97616.00
2019-03-03T02:02:22.155Z,97596.00
2019-03-03T02:06:23.130Z,97597.00
2019-03-03T02:10:43.964Z,97600.00
2019-03-03T02:15:05.330Z,97593.00
2019-03-03T02:19:06.394Z,97594.00
2019-03-03T02:23:27.232Z,97591.00
2019-03-03T02:27:28.095Z,97601.00
2019-03-03T02:31:48.980Z,97599.00
2019-03-03T02:36:09.745Z,97610.00
2019-03-03T02:40:32.477Z,97607.00
2019-03-03T02:44:46.891Z,97603.00
2019-03-03T02:49:01.278Z,97601.00
2019-03-03T02:53:15.814Z,97586.00
2019-03-03T02:57:30.494Z,97577.00
2019-03-03T03:01:46.894Z,97571.00
2019-03-03T03:06:20.716Z,97554.00
2019-03-03T03:10:36.589Z,97568.00
2019-03-03T03:14:55.232Z,97566.00
2019-03-03T03:19:11.255Z,97560.00
2019-03-03T03:23:27.475Z,97551.00
2019-03-03T03:32:15.614Z,97536.00
2019-03-03T03:36:30.635Z,97539.00
2019-03-03T03:40:51.429Z,97561.00
2019-03-03T03:49:37.128Z,97542.00
2019-03-03T03:54:11.810Z,97537.00
2019-03-03T03:58:27.543Z,97518.00
2019-03-03T04:03:02.143Z,97534.00
2019-03-03T04:07:35.917Z,97530.00
2019-03-03T04:11:55.393Z,97541.00
2019-03-03T04:16:11.245Z,97526.00
2019-03-03T04:20:33.262Z,97417.00
2019-03-03T04:24:49.873Z,97524.00
2019-03-03T04:29:06.320Z,97505.00
2019-03-03T04:33:40.737Z,97497.00
2019-03-03T04:38:00.404Z,97487.00
2019-03-03T04:42:35.018Z,97493.00
2019-03-03T04:47:09.407Z,97490.00
2019-03-03T04:51:43.087Z,97487.00
2019-03-03T04:56:02.600Z,97474.00
2019-03-03T05:00:36.472Z,97468.00
2019-03-03T05:09:09.689Z,97474.00
2019-03-03T05:13:30.457Z,97468.00
2019-03-03T05:22:33.554Z,97448.00
2019-03-03T05:26:54.408Z,97447.00
2019-03-03T05:30:55.312Z,97436.00
2019-03-03T05:35:16.483Z,97440.00
2019-03-03T05:39:17.441Z,97441.00
2019-03-03T05:43:18.473Z,97431.00
2019-03-03T05:47:19.361Z,97430.00
2019-03-03T05:51:40.129Z,97438.00
2019-03-03T05:56:00.868Z,97423.00
2019-03-03T06:00:21.631Z,97420.00
2019-03-03T06:04:42.556Z,97409.00
2019-03-03T06:09:04.206Z,97411.00
2019-03-03T06:13:24.934Z,97413.00
2019-03-03T06:17:45.803Z,97423.00
2019-03-03T06:22:06.556Z,97430.00
2019-03-03T06:26:07.441Z,97411.00
2019-03-03T06:30:28.206Z,97423.00
2019-03-03T06:34:49.076Z,97421.00
2019-03-03T06:39:09.971Z,97414.00
2019-03-03T06:43:24.100Z,97419.00
2019-03-03T06:47:38.820Z,97415.00
2019-03-03T06:51:39.757Z,97408.00
2019-03-03T06:56:00.540Z,97403.00
2019-03-03T07:00:21.258Z,97417.00
2019-03-03T07:04:41.979Z,97415.00
2019-03-03T07:08:42.931Z,97425.00
2019-03-03T07:13:03.703Z,97415.00
2019-03-03T07:17:24.552Z,97426.00
2019-03-03T07:21:45.389Z,97432.00
2019-03-03T07:25:46.284Z,97422.00
2019-03-03T07:30:08.217Z,97404.00
2019-03-03T07:34:29.081Z,97400.00
2019-03-03T07:38:49.841Z,97409.00
2019-03-03T07:43:04.526Z,97409.00
2019-03-03T07:47:19.231Z,97411.00
2019-03-03T07:51:33.982Z,97413.00
2019-03-03T07:55:48.737Z,97411.00
2019-03-03T08:00:03.498Z,97410.00
2019-03-03T08:04:17.995Z,97424.00
2019-03-03T08:08:32.818Z,97430.00
2019-03-03T08:12:47.397Z,97432.00
2019-03-03T08:17:01.792Z,97429.00
2019-03-03T08:21:17.277Z,97419.00
2019-03-03T08:25:31.866Z,97414.00
2019-03-03T08:29:46.442Z,97407.00
2019-03-03T08:33:47.463Z,97420.00
2019-03-03T08:38:08.356Z,97423.00
2019-03-03T08:42:49.000Z,97415.00
2019-03-03T08:47:10.940Z,97418.00
2019-03-03T08:51:27.507Z,97413.00
2019-03-03T08:56:02.146Z,97388.00
2019-03-03T09:00:36.740Z,97387.00
2019-03-03T09:04:55.950Z,97383.00
2019-03-03T09:13:40.590Z,97359.00
2019-03-03T09:17:57.324Z,97367.00
2019-03-03T09:22:18.167Z,97370.00
2019-03-03T09:26:39.176Z,97379.00
2019-03-03T09:35:32.788Z,97411.00
2019-03-03T09:40:13.554Z,97401.00
2019-03-03T09:44:51.451Z,97400.00
2019-03-03T09:53:40.374Z,97395.00
2019-03-03T10:02:44.075Z,97377.00
2019-03-03T10:11:53.779Z,97400.00
2019-03-03T10:16:34.618Z,97403.00
2019-03-03T10:25:07.801Z,97401.00
2019-03-03T10:34:31.312Z,97396.00
2019-03-03T10:39:12.089Z,97390.00
2019-03-03T10:43:31.446Z,97403.00
2019-03-03T10:47:50.670Z,97396.00
2019-03-03T10:52:13.406Z,97383.00
2019-03-03T10:56:54.273Z,97366.00
2019-03-03T11:01:15.257Z,97377.00
2019-03-03T11:09:45.531Z,97350.00
2019-03-03T11:14:26.758Z,97348.00
2019-03-03T11:18:55.813Z,97353.00
2019-03-03T11:27:59.372Z,97350.00
2019-03-03T11:32:40.130Z,97342.00
2019-03-03T11:37:20.842Z,97329.00
2019-03-03T11:42:01.461Z,97327.00
2019-03-03T11:46:35.396Z,97320.00
2019-03-03T11:50:53.866Z,97323.00
2019-03-03T11:55:09.784Z,97318.00
2019-03-03T11:59:28.606Z,97309.00
2019-03-03T12:03:48.008Z,97299.00
2019-03-03T12:08:06.869Z,97299.00
2019-03-03T12:12:40.601Z,97302.00
2019-03-03T12:16:59.705Z,97289.00
2019-03-03T12:21:33.466Z,97299.00
2019-03-03T12:26:07.353Z,97300.00
2019-03-03T12:30:49.989Z,97290.00
2019-03-03T12:44:07.856Z,97272.00
2019-03-03T12:57:25.803Z,97270.00
2019-03-03T13:06:24.142Z,97271.00
2019-03-03T13:15:07.565Z,97245.00
2019-03-03T13:19:48.218Z,97233.00
2019-03-03T13:42:24.650Z,97174.00
2019-03-03T13:46:39.205Z,97185.00
2019-03-03T13:50:40.355Z,97190.00
2019-03-03T13:54:41.462Z,97168.00
2019-03-03T13:58:42.439Z,97189.00
2019-03-03T14:03:03.548Z,97204.00
2019-03-03T14:07:24.409Z,97198.00
2019-03-03T14:11:45.338Z,97197.00
2019-03-03T14:16:06.243Z,97189.00
2019-03-03T14:20:27.111Z,97175.00
2019-03-03T14:24:28.214Z,97174.00
2019-03-03T14:28:29.374Z,97169.00
2019-03-03T14:32:50.128Z,97182.00
2019-03-03T14:37:11.009Z,97184.00
2019-03-03T14:41:12.058Z,97183.00
2019-03-03T14:45:54.682Z,97171.00
2019-03-03T14:50:37.212Z,97174.00
2019-03-03T14:54:38.063Z,97140.00
2019-03-03T14:58:58.948Z,97157.00
2019-03-03T15:03:21.702Z,97155.00
2019-03-03T15:07:42.930Z,97147.00
2019-03-03T15:12:03.862Z,97143.00
2019-03-03T15:16:24.826Z,97148.00
2019-03-03T15:20:45.742Z,97142.00
2019-03-03T15:24:46.632Z,97144.00
2019-03-03T15:29:07.409Z,97140.00
2019-03-03T15:33:28.227Z,97137.00
2019-03-03T15:37:49.063Z,97134.00
2019-03-03T15:42:09.936Z,97136.00
2019-03-03T15:46:27.275Z,97145.00
2019-03-03T15:50:40.914Z,97125.00
2019-03-03T15:54:56.375Z,97116.00
2019-03-03T15:58:57.518Z,97111.00
2019-03-03T16:03:18.413Z,97094.00
2019-03-03T16:07:39.313Z,97083.00
2019-03-03T16:11:40.288Z,97089.00
2019-03-03T16:16:01.173Z,97086.00
2019-03-03T16:20:22.752Z,97079.00
2019-03-03T16:24:45.486Z,97064.00
2019-03-03T16:29:06.312Z,97060.00
2019-03-03T16:33:27.196Z,97046.00
2019-03-03T16:37:48.053Z,97052.00
2019-03-03T16:42:08.989Z,97042.00
2019-03-03T16:46:23.631Z,97041.00
2019-03-03T16:50:42.278Z,97051.00
2019-03-03T16:54:56.204Z,97038.00
2019-03-03T16:59:10.934Z,97042.00
2019-03-03T17:03:25.806Z,97043.00
2019-03-03T17:07:40.378Z,97031.00
2019-03-03T17:11:54.993Z,97043.00
2019-03-03T17:16:09.612Z,97042.00
2019-03-03T17:20:24.397Z,97032.00
2019-03-03T17:24:38.916Z,97022.00
2019-03-03T17:28:53.552Z,97030.00
2019-03-03T17:33:11.437Z,97026.00
2019-03-03T17:37:28.901Z,97017.00
2019-03-03T17:41:43.386Z,97026.00
2019-03-03T17:45:58.062Z,97016.00
2019-03-03T17:50:12.472Z,97000.00
2019-03-03T17:54:27.026Z,97004.00
2019-03-03T17:58:41.448Z,96985.00
2019-03-03T18:02:56.130Z,96998.00
2019-03-03T18:06:57.368Z,96982.00
2019-03-03T18:11:18.257Z,96975.00
2019-03-03T18:15:38.978Z,96964.00
2019-03-03T18:20:00.026Z,96971.00
2019-03-03T18:24:20.935Z,96975.00
2019-03-03T18:28:41.685Z,96966.00
2019-03-03T18:32:42.773Z,96956.00
2019-03-03T18:36:43.637Z,96965.00
2019-03-03T18:41:04.593Z,96962.00
2019-03-03T18:45:47.181Z,96975.00
2019-03-03T18:50:09.303Z,96972.00
2019-03-03T18:54:30.159Z,96953.00
2019-03-03T18:58:51.116Z,96943.00
2019-03-03T19:03:11.878Z,96952.00
2019-03-03T19:07:32.778Z,96944.00
2019-03-03T19:11:53.606Z,96947.00
2019-03-03T19:16:14.542Z,96946.00
2019-03-03T19:20:35.456Z,96931.00
2019-03-03T19:24:36.446Z,96926.00
2019-03-03T19:28:57.459Z,96908.00
2019-03-03T19:33:40.150Z,96929.00
2019-03-03T19:38:01.101Z,96902.00
2019-03-03T19:42:22.047Z,96899.00
2019-03-03T19:46:35.932Z,96884.00
2019-03-03T19:50:49.670Z,96880.00
2019-03-03T19:55:04.155Z,96878.00
2019-03-03T19:59:18.826Z,96874.00
2019-03-03T20:03:33.459Z,96871.00
2019-03-03T20:07:47.845Z,96862.00
2019-03-03T20:11:48.951Z,96841.00
2019-03-03T20:16:09.824Z,96846.00
2019-03-03T20:20:52.365Z,96852.00
2019-03-03T20:25:13.414Z,96862.00
2019-03-03T20:29:34.326Z,96855.00
2019-03-03T20:33:55.092Z,96833.00
2019-03-03T20:38:15.971Z,96813.00
2019-03-03T20:42:36.948Z,96797.00
2019-03-03T20:46:50.965Z,96804.00
2019-03-03T20:51:05.669Z,96799.00
2019-03-03T20:55:20.432Z,96807.00
2019-03-03T20:59:34.892Z,96803.00
2019-03-03T21:03:49.843Z,96790.00
2019-03-03T21:08:04.506Z,96784.00
2019-03-03T21:12:19.133Z,96778.00
2019-03-03T21:16:34.109Z,96755.00
2019-03-03T21:20:49.255Z,96754.00
2019-03-03T21:25:03.470Z,96754.00
2019-03-03T21:29:18.301Z,96755.00
2019-03-03T21:33:33.042Z,96747.00
2019-03-03T21:37:47.752Z,96740.00
2019-03-03T21:42:02.100Z,96727.00
2019-03-03T21:46:16.150Z,96718.00
2019-03-03T21:50:30.551Z,96711.00
2019-03-03T21:54:46.907Z,96700.00
2019-03-03T21:59:01.852Z,96701.00
2019-03-03T22:03:44.496Z,96697.00
2019-03-03T22:08:06.411Z,96682.00
2019-03-03T22:12:27.264Z,96667.00
2019-03-03T22:16:50.379Z,96666.00
2019-03-03T22:21:10.748Z,96651.00
2019-03-03T22:30:28.256Z,96649.00
2019-03-03T22:34:49.153Z,96649.00
2019-03-03T22:39:10.089Z,96628.00
2019-03-03T22:43:11.081Z,96617.00
2019-03-03T22:47:25.336Z,96620.00
2019-03-03T22:51:39.809Z,96611.00
2019-03-03T22:55:40.820Z,96582.00
2019-03-03T23:00:01.761Z,96568.00
2019-03-03T23:04:42.394Z,96567.00
2019-03-03T23:09:23.203Z,96579.00
2019-03-03T23:14:05.729Z,96574.00
2019-03-03T23:18:46.359Z,96571.00
2019-03-03T23:23:27.061Z,96551.00
2019-03-03T23:27:47.814Z,96556.00
2019-03-03T23:32:08.666Z,96552.00
2019-03-03T23:36:29.525Z,96552.00
2019-03-03T23:40:50.313Z,96526.00
2019-03-03T23:45:11.335Z,96525.00
2019-03-03T23:49:33.266Z,96512.00
2019-03-03T23:53:54.638Z,96495.00
2019-03-03T23:58:15.826Z,96514.00
